Terminal Aerodrome Forecast
Issued by NWS Twin Cities, MN

Home | Current Version | Previous Version | Graphics & Text | Print | Product List | Glossary On
Versions: 1 2 3 4 5 6 7 8 9 10 11 12 13 14 15 16 17 18 19
000
FTUS43 KMPX 110500
TAFSTC
TAF
KSTC 110530Z 1106/1206 18009KT P6SM VCSH SCT050 OVC080
      TEMPO 1108/1111 4SM TSRA OVC035CB
     FM111200 18011KT P6SM -SHRA BKN030 OVC070
     FM111600 19013KT P6SM VCSH BKN035 OVC080
     FM112000 20008KT P6SM SCT035 BKN060=

USA.gov is the U.S. government's official web portal to all federal, state and local government web resources and services.